Nashville, TN (JWN)

Redbird FMX


Given the close proximity to downtown Nashville, Tennessee, John Tune (JWN) is a great place for the general aviation enthusiast or for someone learning how to fly. Wings of Eagles Aviation’s office is located in Hangar 1, and is accessible from the road or the ramp. The FBO is open 24 hours a day 7 days a week so there will always be someone available for help or fuel.

Address:
210 Tune Airport Dr.
Nashville, TN 37209

Phone: (615) 979-9222

Business Hours:
Monday-Sunday 7a-10p

Wings JWN

NOAA Weather

Nashville, TN

Last Updated on Oct 18 2017, 11:53 pm CDT

Current Conditions: Fair

NOAA Icon

Temp: 50°F

Wind: South at 5mph

Humidity: 80%

Windchill: 48°F

Your 5-Day Forecast at a Glance

Available data for KBNA from the past 2 hours
NASHVILLE, TN
Metar
KBNA 190453Z 17005KT 10SM CLR 10/07 A3023 RMK AO2 SLP234 T01000067

04:53 UTC

Wind: 170° 5kt

Visibility: 10 SM

Sky:

Temp: 10 deg C / 50 deg F

Dewpoint: 7 deg C / 44.6 deg F

Pressure: 30.23 inHg

TAF
KBNA 182320Z 1900/1924 18002KT P6SM FEW250 FM191500 19007KT P6SM FEW250